Latest Weather Observations for Lucinda

IDQ60801

Issued at 10:02 am EST Friday 27 February 2015 (issued every 30 minutes, with the page automatically refreshed every 10 minutes)

About weather observations | Map of weather stations | Latest weather observations for QLD | Other Formats
Station Details ID: 032141 Name: LUCINDA POINT Lat: -18.52 Lon: 146.39 Height: 10.0 m
Data from the previous 72 hours. | See also: Recent months for locations in Queensland
Date/Time
EST
Temp
°C
App
Temp
°C
Dew
Point
Rel
Hum
%
Delta-T
°C
Wind Press
QNH
hPa
Press
MSL
hPa
Rain
since 9 am
mm
Dir
 
Spd
km/h
Gust
km/h
Spd
kts
Gust
kts
27/10:00am 31.2 34.5 19.2 48 7.8 CALM 0 6 0 3 1007.9 1007.8 0.0
27/09:30am 30.8 33.8 19.2 50 7.6 NE 2 6 1 3 1007.8 1007.7 0.0
27/09:00am 28.6 31.9 19.2 56 6.1 CALM 0 0 0 0 1007.7 1007.6 0.0
27/08:30am 28.3 30.5 20.3 62 5.3 W 9 13 5 7 1007.6 1007.5 0.0
27/08:00am 27.8 29.6 21.1 67 4.5 W 13 17 7 9 1007.2 1007.1 0.0
27/07:30am 26.9 28.0 21.2 71 3.8 W 17 20 9 11 1007.1 1007.0 0.0
27/07:00am 26.4 27.6 21.4 74 3.3 W 17 17 9 9 1006.8 1006.7 0.0
27/06:30am 27.8 29.2 19.6 61 5.3 N 11 13 6 7 1006.7 1006.6 0.0
27/06:00am 27.8 28.9 19.6 61 5.3 N 13 15 7 8 1006.6 1006.5 0.0
27/05:30am 27.8 29.2 19.6 61 5.3 NNE 11 13 6 7 1006.5 1006.4 0.0
27/05:00am 27.8 28.3 20.1 63 5.1 NNE 17 20 9 11 1006.2 1006.1 0.0
27/04:30am 27.9 28.9 20.2 63 5.0 N 15 19 8 10 1006.0 1005.9 0.0
27/04:00am 27.9 28.5 20.2 63 5.1 NNE 17 20 9 11 1006.0 1005.9 0.0
27/03:30am 27.9 28.5 20.2 63 5.0 NNE 17 20 9 11 1005.8 1005.7 0.0
27/03:00am 28.0 28.2 20.6 64 4.9 NNE 20 24 11 13 1005.9 1005.8 0.0
27/02:30am 28.0 28.4 20.6 64 4.9 NNE 19 24 10 13 1006.1 1006.0 0.0
27/02:00am 28.1 28.6 20.9 65 4.8 N 19 24 10 13 1006.2 1006.1 0.0
27/01:30am 28.0 28.3 20.8 65 4.8 N 20 26 11 14 1006.4 1006.3 0.0
27/01:00am 28.1 28.6 20.9 65 4.8 N 19 24 10 13 1006.8 1006.7 0.0
27/12:30am 28.0 28.9 20.8 65 4.8 N 17 20 9 11 1007.1 1007.0 0.0
27/12:00am 28.2 29.6 21.0 65 4.8 NNW 15 20 8 11 1007.7 1007.6 0.0
 
Date/Time
EST
Temp
°C
App
Temp
°C
Dew
Point
Rel
Hum
%
Delta-T
°C
Wind Press
QNH
hPa
Press
MSL
hPa
Rain
since 9 am
mm
Dir
 
Spd
km/h
Gust
km/h
Spd
kts
Gust
kts
26/11:30pm 28.3 28.8 21.1 65 4.8 N 20 26 11 14 1007.8 1007.7 0.0
26/11:00pm 28.4 28.7 20.7 63 5.1 NNW 20 26 11 14 1008.0 1007.9 0.0
26/10:30pm 28.4 28.8 20.7 63 5.1 NNW 19 26 10 14 1007.8 1007.7 0.0
26/10:00pm 28.4 28.8 20.9 64 5.0 N 20 26 11 14 1007.4 1007.3 0.0
26/09:30pm 28.4 28.5 20.4 62 5.3 N 20 26 11 14 1006.9 1006.8 0.0
26/09:00pm 28.3 28.5 20.6 63 5.1 N 20 24 11 13 1006.5 1006.4 0.0
26/08:30pm 28.4 28.8 20.9 64 5.0 N 20 24 11 13 1006.3 1006.2 0.0
26/08:00pm 28.4 28.5 20.4 62 5.3 N 20 24 11 13 1005.9 1005.8 0.0
26/07:30pm 28.4 28.7 20.4 62 5.3 N 19 22 10 12 1005.8 1005.7 0.0
26/07:00pm 28.5 28.8 20.8 63 5.1 NNE 20 24 11 13 1005.5 1005.4 0.0
26/06:30pm 28.7 28.4 19.6 58 5.9 N 20 24 11 13 1005.2 1005.1 0.0
26/06:00pm 28.7 27.7 19.6 58 5.9 NNE 24 26 13 14 1004.8 1004.7 0.0
26/05:30pm 28.8 27.8 19.7 58 5.9 NNE 24 28 13 15 1004.7 1004.6 0.0
26/05:00pm 28.8 27.8 19.7 58 6.0 NE 24 28 13 15 1004.5 1004.4 0.0
26/04:30pm 28.8 28.2 19.7 58 5.9 NE 22 26 12 14 1004.6 1004.5 0.0
26/04:00pm 28.9 28.9 18.9 54 6.5 NE 17 24 9 13 1004.6 1004.5 0.0
26/03:30pm 29.5 29.9 18.9 53 6.9 E 15 20 8 11 1004.7 1004.6 0.0
26/03:00pm 29.5 30.1 19.5 55 6.5 ENE 15 20 8 11 1005.0 1004.9 0.0
26/02:30pm 29.2 29.8 19.5 56 6.3 ENE 15 20 8 11 1005.3 1005.2 0.0
26/02:00pm 29.9 30.8 19.3 53 6.9 E 13 19 7 10 1005.8 1005.7 0.0
26/01:30pm 29.8 30.9 18.9 52 7.1 ENE 11 17 6 9 1006.3 1006.2 0.0
26/01:00pm 30.3 32.0 18.4 49 7.7 ESE 7 9 4 5 1006.9 1006.8 0.0
26/12:30pm 29.3 30.8 19.0 53 6.7 SE 9 17 5 9 1007.3 1007.2 0.0
26/12:00pm 29.9 31.3 18.7 51 7.2 ESE 9 13 5 7 1008.0 1007.9 0.0
26/11:30am 30.9 31.2 17.9 45 8.3 ESE 13 17 7 9 1008.2 1008.1 0.0
26/11:00am 30.9 32.3 18.6 48 8.0 SE 9 17 5 9 1008.4 1008.3 0.0
26/10:30am 30.9 32.3 18.6 48 8.0 ESE 9 15 5 8 1008.6 1008.5 0.0
26/10:00am 30.8 32.1 19.2 50 7.6 ESE 11 17 6 9 1008.8 1008.7 0.0
26/09:30am 29.9 31.3 19.6 54 6.7 ESE 11 15 6 8 1008.8 1008.7 0.0
26/09:00am 30.6 32.9 19.9 52 7.1 E 7 11 4 6 1008.7 1008.6 0.0
26/08:30am 30.3 32.7 19.6 52 7.0 ESE 6 9 3 5 1008.7 1008.6 0.0
26/08:00am 29.0 31.0 19.9 58 6.0 ESE 9 13 5 7 1008.7 1008.6 0.0
26/07:30am 28.5 30.4 19.7 59 5.7 ENE 9 13 5 7 1008.2 1008.1 0.0
26/07:00am 28.8 29.9 19.7 58 6.0 ENE 13 17 7 9 1007.9 1007.8 0.0
26/06:30am 28.3 28.8 19.2 57 5.9 ENE 15 20 8 11 1007.7 1007.6 0.0
26/06:00am 28.2 28.8 19.4 59 5.7 ENE 15 20 8 11 1007.4 1007.3 0.0
26/05:30am 28.3 29.3 20.3 62 5.3 ENE 15 20 8 11 1007.4 1007.3 0.0
26/05:00am 28.3 29.6 20.1 61 5.4 ENE 13 17 7 9 1007.3 1007.2 0.0
26/04:30am 28.4 29.5 19.6 59 5.7 E 13 17 7 9 1007.0 1006.9 0.0
26/04:00am 28.3 30.1 20.3 62 5.3 E 11 15 6 8 1007.0 1006.9 0.0
26/03:30am 28.4 29.5 20.4 62 5.3 NE 15 17 8 9 1007.1 1007.0 0.0
26/03:00am 28.3 30.3 20.8 63 5.0 NE 11 15 6 8 1007.0 1006.9 0.0
26/02:30am 28.3 29.8 20.6 63 5.1 N 13 17 7 9 1007.0 1006.9 0.0
26/02:00am 28.5 28.5 20.2 60 5.5 NE 20 24 11 13 1006.9 1006.8 0.0
26/01:30am 28.6 28.4 20.6 62 5.3 NE 22 26 12 14 1006.8 1006.7 0.0
26/01:00am 28.5 29.1 21.3 65 4.8 ENE 20 24 11 13 1006.9 1006.8 0.0
26/12:30am 28.2 30.6 22.2 70 4.0 N 13 19 7 10 1007.1 1007.0 0.0
26/12:00am 28.3 30.2 22.1 69 4.2 N 15 19 8 10 1007.4 1007.3 0.0
 
Date/Time
EST
Temp
°C
App
Temp
°C
Dew
Point
Rel
Hum
%
Delta-T
°C
Wind Press
QNH
hPa
Press
MSL
hPa
Rain
since 9 am
mm
Dir
 
Spd
km/h
Gust
km/h
Spd
kts
Gust
kts
25/11:30pm 28.4 30.1 22.4 70 4.1 N 17 20 9 11 1007.9 1007.8 0.0
25/11:00pm 28.5 30.6 22.5 70 4.1 N 15 20 8 11 1008.0 1007.9 0.0
25/10:30pm 28.5 29.4 22.0 68 4.4 N 20 28 11 15 1007.8 1007.7 0.0
25/10:00pm 28.6 29.7 21.9 67 4.5 N 19 24 10 13 1007.7 1007.6 0.0
25/09:30pm 28.6 30.8 22.6 70 4.1 NNE 15 19 8 10 1007.7 1007.6 0.0
25/09:00pm 28.5 29.9 21.8 67 4.5 N 17 20 9 11 1007.3 1007.2 0.0
25/08:30pm 28.6 30.0 21.9 67 4.5 N 17 19 9 10 1007.0 1006.9 0.0
25/08:00pm 28.6 30.0 21.9 67 4.5 NNW 17 20 9 11 1006.5 1006.4 0.0
25/07:30pm 28.6 29.8 21.4 65 4.8 NNW 17 22 9 12 1006.3 1006.2 0.0
25/07:00pm 28.6 30.4 21.1 64 5.0 N 13 17 7 9 1006.3 1006.2 0.0
25/06:30pm 28.7 30.2 21.2 64 5.0 N 15 19 8 10 1006.4 1006.3 0.0
25/06:00pm 28.7 29.1 21.0 63 5.1 N 20 24 11 13 1006.0 1005.9 0.0
25/05:30pm 28.7 29.7 21.7 66 4.7 NNE 19 22 10 12 1005.6 1005.5 0.0
25/05:00pm 29.3 30.3 21.0 61 5.5 N 17 22 9 12 1005.4 1005.3 0.0
25/04:30pm 29.4 30.7 21.6 63 5.2 NNE 17 20 9 11 1005.6 1005.5 0.0
25/04:00pm 29.1 29.9 21.8 64 4.9 NNE 20 24 11 13 1005.3 1005.2 0.0
25/03:30pm 28.8 29.4 21.3 64 5.0 NNE 20 24 11 13 1005.7 1005.6 0.0
25/03:00pm 28.8 29.6 21.8 66 4.7 NE 20 22 11 12 1006.0 1005.9 0.0
25/02:30pm 28.8 29.8 21.8 66 4.7 NE 19 22 10 12 1006.1 1006.0 0.0
25/02:00pm 29.5 31.0 22.0 64 5.1 ENE 17 22 9 12 1006.7 1006.6 0.0
25/01:30pm 29.6 31.3 22.3 65 4.9 ENE 17 26 9 14 1007.2 1007.1 0.0
25/01:00pm 29.0 30.8 22.5 68 4.4 E 17 24 9 13 1007.7 1007.6 0.0
25/12:30pm 29.3 30.9 22.8 68 4.4 ESE 19 26 10 14 1008.0 1007.9 0.0
25/12:00pm 29.6 30.9 22.6 66 4.8 ESE 20 28 11 15 1007.9 1007.8 0.0
25/11:30am 29.5 31.0 23.0 68 4.4 ESE 20 28 11 15 1008.1 1008.0 0.0
25/11:00am 30.3 31.8 23.0 65 5.0 ESE 20 26 11 14 1008.6 1008.5 0.0
25/10:30am 30.3 32.0 23.0 65 5.0 ESE 19 24 10 13 1008.7 1008.6 0.0
25/10:00am 30.6 33.2 23.3 65 5.0 ESE 15 20 8 11 1008.8 1008.7 0.0
25/09:30am 30.3 32.8 23.2 65 4.9 E 15 20 8 11 1008.6 1008.5 0.0
25/09:00am 30.1 32.3 23.3 67 4.7 ESE 17 20 9 11 1008.6 1008.5 0.0
25/08:30am 29.5 32.0 23.2 69 4.3 ESE 15 20 8 11 1008.6 1008.5 0.0
25/08:00am 29.0 33.5 25.2 80 2.7 ESE 11 19 6 10 1008.2 1008.1 0.0
25/07:30am 28.1 32.7 25.3 85 2.0 S 11 13 6 7 1007.9 1007.8 0.0
25/07:00am 28.0 33.0 25.4 86 1.8 S 9 13 5 7 1007.7 1007.6 0.0
25/06:30am 27.8 32.5 25.0 85 2.0 SSW 9 11 5 6 1007.5 1007.4 0.0
25/06:00am 27.6 32.2 24.8 85 2.0 SSW 9 11 5 6 1007.5 1007.4 0.0
25/05:30am 27.6 31.5 24.8 85 2.0 SW 13 17 7 9 1007.5 1007.4 0.0
25/05:00am 27.8 32.8 24.8 84 2.1 SSW 7 9 4 5 1007.2 1007.1 0.0
25/04:30am 27.6 31.8 24.8 85 2.0 SSW 11 13 6 7 1006.9 1006.8 0.0
25/04:00am 27.3 31.1 24.7 86 1.8 SW 13 13 7 7 1006.7 1006.6 0.0
25/03:30am 27.2 30.6 24.6 86 1.8 SW 15 17 8 9 1006.8 1006.7 0.0
25/03:00am 27.5 30.9 24.7 85 2.0 WSW 15 15 8 8 1006.7 1006.6 0.0
25/02:30am 27.6 30.7 24.2 82 2.4 WSW 15 19 8 10 1006.6 1006.5 0.0
25/02:00am 28.6 32.2 23.7 75 3.4 WSW 11 13 6 7 1006.6 1006.5 0.0
25/01:30am 28.6 33.5 23.1 72 3.8 S 2 7 1 4 1006.9 1006.8 0.0
25/01:00am 28.7 32.7 23.1 71 3.8 SW 7 9 4 5 1007.2 1007.1 0.0
25/12:30am 28.7 33.0 23.6 74 3.5 NNW 7 9 4 5 1007.8 1007.7 0.0
25/12:00am 28.8 32.6 23.5 73 3.6 N 9 13 5 7 1007.7 1007.6 0.0
 
Date/Time
EST
Temp
°C
App
Temp
°C
Dew
Point
Rel
Hum
%
Delta-T
°C
Wind Press
QNH
hPa
Press
MSL
hPa
Rain
since 9 am
mm
Dir
 
Spd
km/h
Gust
km/h
Spd
kts
Gust
kts
24/11:30pm 28.9 32.3 23.3 72 3.8 N 11 13 6 7 1007.8 1007.7 0.0
24/11:00pm 29.0 32.9 23.0 70 4.1 N 7 11 4 6 1008.3 1008.2 0.0
24/10:30pm 29.0 32.0 23.4 72 3.8 N 13 17 7 9 1008.4 1008.3 0.0
24/10:00pm 29.1 32.1 23.3 71 4.0 NNE 13 15 7 8 1008.7 1008.6 0.0
24/09:30pm 29.1 31.0 22.8 69 4.3 NNW 17 20 9 11 1008.4 1008.3 0.0
24/09:00pm 29.0 31.2 23.2 71 4.0 N 17 20 9 11 1007.8 1007.7 0.0
24/08:30pm 29.1 31.1 24.0 74 3.5 N 20 24 11 13 1007.3 1007.2 0.0
24/08:00pm 29.1 30.9 23.5 72 3.9 NE 20 24 11 13 1007.0 1006.9 0.0
24/07:30pm 29.2 30.8 22.9 69 4.3 NE 19 20 10 11 1006.7 1006.6 0.0
24/07:00pm 29.2 31.2 22.9 69 4.3 NE 17 19 9 10 1006.6 1006.5 0.0
24/06:30pm 29.1 30.8 23.1 70 4.1 NE 19 20 10 11 1006.3 1006.2 0.0
24/06:00pm 29.3 31.7 22.3 66 4.8 ENE 13 17 7 9 1006.0 1005.9 0.0
24/05:30pm 29.4 31.6 21.9 64 5.1 E 13 15 7 8 1006.1 1006.0 0.0
24/05:00pm 29.8 31.7 22.8 66 4.8 ESE 17 24 9 13 1005.6 1005.5 0.0
24/04:30pm 29.7 31.7 22.9 67 4.6 ESE 17 22 9 12 1005.4 1005.3 0.0
24/04:00pm 29.9 31.6 22.3 63 5.2 ESE 17 22 9 12 1005.6 1005.5 0.0
24/03:30pm 30.5 31.8 22.7 63 5.3 ESE 20 24 11 13 1005.6 1005.5 0.0
24/03:00pm 30.6 32.3 23.0 64 5.2 ESE 19 22 10 12 1005.9 1005.8 0.0
24/02:30pm 30.8 33.3 23.2 64 5.2 ESE 15 20 8 11 1006.4 1006.3 0.0
24/02:00pm 31.5 34.9 23.3 61 5.7 ESE 11 15 6 8 1006.7 1006.6 0.0
24/01:30pm 30.1 33.6 23.5 67 4.6 SE 11 15 6 8 1007.0 1006.9 0.0
24/01:00pm 29.5 32.4 23.2 69 4.3 S 13 17 7 9 1007.3 1007.2 0.0
24/12:30pm 29.2 31.9 22.9 69 4.3 SSE 13 17 7 9 1007.7 1007.6 0.0
24/12:00pm 28.9 31.1 22.6 69 4.3 S 15 19 8 10 1008.0 1007.9 0.0
24/11:30am 28.8 30.9 22.5 68 4.3 S 15 17 8 9 1008.3 1008.2 0.0
24/11:00am 28.6 31.0 22.3 68 4.3 SSW 13 17 7 9 1008.6 1008.5 0.0
24/10:30am 28.5 30.4 22.0 68 4.4 SSW 15 17 8 9 1008.7 1008.6 0.0

Other Formats:

Comma delimited format used in spreadsheet applications
http://www.bom.gov.au/fwo/IDQ60801/IDQ60801.94295.axf

JavaScript Object Notation format (JSON) in row-major order
http://www.bom.gov.au/fwo/IDQ60801/IDQ60801.94295.json